Terminal Aerodrome Forecast
Issued by NWS Flagstaff, AZ

Home | Current Version | Previous Version | Text Only | Print | Product List | Glossary On
Versions: 1 2 3 4 5 6 7 8 9 10 11 12 13 14 15 16 17 18 19 20 21 22 23 24 25 26 27 28 29 30 31
000
FTUS45 KFGZ 190700 AAA
TAFFLG
TAF AMD
KFLG 190742Z 1908/2006 00000KT P6SM SKC
      TEMPO 1911/1915 3SM BR SCT002
     FM191500 VRB05KT P6SM FEW060
     FM192000 21005KT P6SM FEW080
     FM200200 VRB03KT P6SM BKN250=

USA.gov is the U.S. government's official web portal to all federal, state and local government web resources and services.